Time;durP1;ratioP1;P1;durP2;ratioP2;P2;SDS_P1;SDS_P2;PMS_P1;PMS_P2;Temp;Humidity;BMP_temperature;BMP_pressure;BME280_temperature;BME280_humidity;BME280_pressure;Samples;Min_cycle;Max_cycle;Signal;HPM_P1;HPM_P2
2024/04/07 00:01:12;;;;;;;22.48;3.53;;;13.40;41.80;;;;;;6199989;28;20056;-83
2024/04/07 00:04:13;;;;;;;18.88;3.35;;;13.40;46.40;;;;;;6164197;28;20062;-82
2024/04/07 00:07:13;;;;;;;25.05;4.15;;;13.30;50.60;;;;;;6215026;28;20654;-82
2024/04/07 00:10:14;;;;;;;21.83;3.60;;;13.30;49.40;;;;;;6203493;28;20050;-82
2024/04/07 00:13:14;;;;;;;22.15;3.95;;;13.30;49.50;;;;;;6203681;28;20054;-82
2024/04/07 00:16:15;;;;;;;25.73;3.95;;;13.20;52.00;;;;;;6191388;28;20129;-81
2024/04/07 00:19:16;;;;;;;21.05;3.33;;;13.20;53.50;;;;;;6179911;28;20062;-83
2024/04/07 00:22:17;;;;;;;27.52;4.40;;;13.10;53.50;;;;;;6201101;28;20050;-82
2024/04/07 00:25:17;;;;;;;21.92;3.75;;;13.10;54.90;;;;;;6184709;28;20420;-82
2024/04/07 00:28:18;;;;;;;21.73;4.07;;;13.00;53.30;;;;;;6203359;28;20136;-83
2024/04/07 00:31:19;;;;;;;22.40;3.55;;;13.00;55.90;;;;;;6205120;28;20453;-83
2024/04/07 00:34:20;;;;;;;22.02;3.50;;;13.00;53.30;;;;;;6190462;28;20514;-83
2024/04/07 00:37:21;;;;;;;17.25;2.92;;;12.90;53.20;;;;;;6188639;28;20058;-84
2024/04/07 00:40:22;;;;;;;21.63;3.50;;;12.80;56.90;;;;;;6201334;28;20060;-83
2024/04/07 00:43:22;;;;;;;18.83;3.88;;;12.80;56.80;;;;;;6187596;28;20425;-84
2024/04/07 00:46:23;;;;;;;20.05;3.88;;;12.80;60.20;;;;;;6177618;28;20054;-83
2024/04/07 00:49:24;;;;;;;18.13;3.63;;;12.80;61.40;;;;;;6164004;28;20065;-83
2024/04/07 00:52:24;;;;;;;17.92;3.30;;;12.70;63.30;;;;;;6209524;28;20049;-83
2024/04/07 00:55:25;;;;;;;25.75;3.90;;;12.70;63.90;;;;;;6202973;28;20069;-85
2024/04/07 00:58:26;;;;;;;20.90;3.60;;;12.60;61.50;;;;;;6187367;28;20058;-83
2024/04/07 01:01:26;;;;;;;24.42;3.53;;;12.70;62.40;;;;;;6194907;28;20501;-84
2024/04/07 01:04:27;;;;;;;21.90;3.90;;;12.50;68.50;;;;;;6164037;28;20513;-83
2024/04/07 01:07:28;;;;;;;21.10;3.63;;;12.50;66.20;;;;;;6208725;28;20192;-83
2024/04/07 01:10:28;;;;;;;27.27;3.78;;;12.50;64.00;;;;;;6167228;28;20065;-83
2024/04/07 01:13:29;;;;;;;23.10;3.65;;;12.40;66.40;;;;;;6185606;28;20052;-83
2024/04/07 01:16:30;;;;;;;23.92;3.45;;;12.50;69.20;;;;;;6202224;28;20421;-82
2024/04/07 01:19:31;;;;;;;17.05;3.08;;;12.40;73.90;;;;;;6178914;28;20141;-83
2024/04/07 01:22:32;;;;;;;20.90;3.47;;;12.40;73.90;;;;;;6200782;28;20657;-83
2024/04/07 01:25:33;;;;;;;23.90;4.25;;;12.50;74.00;;;;;;6200145;28;20066;-82
2024/04/07 01:28:34;;;;;;;21.60;3.58;;;12.50;76.60;;;;;;6202218;28;20058;-82
2024/04/07 01:31:35;;;;;;;21.27;3.42;;;12.50;75.50;;;;;;6196860;28;20421;-82
2024/04/07 01:34:36;;;;;;;23.77;3.10;;;12.50;77.40;;;;;;6201979;28;20058;-82
2024/04/07 01:37:37;;;;;;;16.88;3.17;;;12.50;80.20;;;;;;6201115;28;20073;-82
2024/04/07 01:40:37;;;;;;;27.48;4.50;;;12.50;80.50;;;;;;6184965;28;20410;-82
2024/04/07 01:43:38;;;;;;;20.80;3.35;;;12.40;77.80;;;;;;6185148;28;20050;-81
2024/04/07 01:46:38;;;;;;;21.50;3.28;;;12.40;78.10;;;;;;6161084;28;20109;-81
2024/04/07 01:49:39;;;;;;;21.55;3.28;;;12.30;80.40;;;;;;6184497;28;20061;-81
2024/04/07 01:52:40;;;;;;;20.38;3.25;;;12.30;81.20;;;;;;6183841;28;20057;-83
2024/04/07 01:55:41;;;;;;;26.38;3.80;;;12.40;81.30;;;;;;6184388;28;20077;-81
2024/04/07 01:58:41;;;;;;;24.27;3.65;;;12.30;82.60;;;;;;6196870;28;20085;-82
2024/04/07 02:01:42;;;;;;;24.10;3.92;;;12.20;84.40;;;;;;6173492;28;20054;-81
2024/04/07 02:04:43;;;;;;;25.40;3.58;;;12.20;84.80;;;;;;6184174;28;20057;-83
2024/04/07 02:07:43;;;;;;;24.13;3.60;;;12.20;85.20;;;;;;6185663;28;20080;-81
2024/04/07 02:10:44;;;;;;;24.40;4.32;;;12.20;85.40;;;;;;6183931;28;20089;-81
2024/04/07 02:13:45;;;;;;;23.20;3.78;;;12.20;89.60;;;;;;6180486;28;20642;-81
2024/04/07 02:16:45;;;;;;;22.40;3.80;;;12.10;89.20;;;;;;6187590;28;20050;-80
2024/04/07 02:19:47;;;;;;;23.50;4.15;;;12.20;90.10;;;;;;6201144;28;20063;-81
2024/04/07 02:22:48;;;;;;;20.65;3.55;;;12.10;90.00;;;;;;6185825;28;20061;-80
2024/04/07 02:25:49;;;;;;;21.20;3.88;;;12.20;88.10;;;;;;6200654;28;20059;-80
2024/04/07 02:28:50;;;;;;;19.85;3.42;;;12.20;89.20;;;;;;6196582;28;20072;-81
2024/04/07 02:31:51;;;;;;;26.52;3.70;;;12.20;88.20;;;;;;6201942;28;20461;-81
2024/04/07 02:34:52;;;;;;;28.75;3.50;;;12.20;88.20;;;;;;6202208;28;20157;-83
2024/04/07 02:37:53;;;;;;;23.25;3.42;;;12.30;88.50;;;;;;6186452;28;20084;-82
2024/04/07 02:40:54;;;;;;;24.25;3.47;;;12.30;90.10;;;;;;6175547;28;20054;-83
2024/04/07 02:43:55;;;;;;;22.48;3.67;;;12.20;89.80;;;;;;6179522;28;20085;-82
2024/04/07 02:50:15;;;;;;;20.88;3.50;;;12.20;89.50;;;;;;6200809;28;20529;-83
2024/04/07 02:53:16;;;;;;;18.48;3.47;;;12.20;88.20;;;;;;6201107;28;20073;-81
2024/04/07 02:56:17;;;;;;;26.98;3.63;;;12.10;85.00;;;;;;6196563;28;20046;-81
2024/04/07 02:59:18;;;;;;;25.02;3.35;;;12.10;84.90;;;;;;6185564;28;20054;-80
2024/04/07 03:02:20;;;;;;;20.63;3.53;;;12.10;85.20;;;;;;6186974;28;20062;-81
2024/04/07 03:05:21;;;;;;;25.27;4.00;;;12.00;84.90;;;;;;6187012;28;20058;-82
2024/04/07 03:08:22;;;;;;;21.98;3.38;;;12.00;81.20;;;;;;6205037;28;20133;-84
2024/04/07 03:11:23;;;;;;;26.42;3.65;;;12.00;81.20;;;;;;6180279;28;20125;-81
2024/04/07 03:14:24;;;;;;;16.48;3.22;;;12.10;80.40;;;;;;6197892;28;20575;-82
2024/04/07 03:17:25;;;;;;;22.80;3.63;;;12.10;85.30;;;;;;6205011;28;20064;-83
2024/04/07 03:20:26;;;;;;;26.63;3.65;;;12.00;81.40;;;;;;6205332;28;20304;-82
2024/04/07 03:23:27;;;;;;;24.58;3.78;;;12.00;83.90;;;;;;6178015;28;20084;-83
2024/04/07 03:26:27;;;;;;;27.95;3.80;;;12.00;82.70;;;;;;6205380;28;20054;-82
2024/04/07 03:29:28;;;;;;;24.20;3.80;;;12.00;83.50;;;;;;6183705;28;20060;-82
2024/04/07 03:32:29;;;;;;;19.63;3.17;;;12.00;83.90;;;;;;6188705;28;20050;-82
2024/04/07 03:35:29;;;;;;;19.95;3.38;;;11.90;83.20;;;;;;6188805;28;20149;-82
2024/04/07 03:38:30;;;;;;;24.35;3.60;;;12.00;82.80;;;;;;6186853;28;20432;-82
2024/04/07 03:41:31;;;;;;;21.00;3.40;;;12.00;82.70;;;;;;6205065;28;20498;-83
2024/04/07 03:44:31;;;;;;;31.05;4.22;;;12.00;83.80;;;;;;6189305;28;20486;-83
2024/04/07 03:47:32;;;;;;;25.23;3.45;;;12.00;83.40;;;;;;6183360;28;20848;-82
2024/04/07 03:50:33;;;;;;;29.67;4.55;;;12.00;84.20;;;;;;6176874;28;20058;-83
2024/04/07 03:53:33;;;;;;;32.70;4.43;;;12.00;87.30;;;;;;6201272;28;20137;-82
2024/04/07 03:56:34;;;;;;;26.27;3.80;;;11.90;90.40;;;;;;6200936;28;20571;-83
2024/04/07 03:59:35;;;;;;;27.20;4.32;;;11.90;88.20;;;;;;6197010;28;20418;-82
2024/04/07 04:02:36;;;;;;;23.33;3.92;;;12.00;89.80;;;;;;6203781;28;20062;-83
2024/04/07 04:05:36;;;;;;;20.20;3.65;;;12.00;90.40;;;;;;6202161;28;20424;-83
2024/04/07 04:08:37;;;;;;;19.27;3.85;;;12.00;88.30;;;;;;6204240;28;20783;-81
2024/04/07 04:11:37;;;;;;;22.77;3.65;;;12.00;87.90;;;;;;6204310;28;20065;-82
2024/04/07 04:14:38;;;;;;;27.77;3.60;;;12.10;81.30;;;;;;6168111;28;20058;-82
2024/04/07 04:17:39;;;;;;;23.13;3.70;;;12.10;81.00;;;;;;6203355;28;20069;-82
2024/04/07 04:20:39;;;;;;;22.27;4.20;;;12.10;81.10;;;;;;6187610;28;20057;-82
2024/04/07 04:23:40;;;;;;;22.60;3.80;;;12.10;79.30;;;;;;6186725;28;20053;-83
2024/04/07 04:26:41;;;;;;;26.52;3.65;;;12.10;81.00;;;;;;6203386;28;20054;-83
2024/04/07 04:29:41;;;;;;;23.25;3.42;;;12.00;81.30;;;;;;6173383;28;20073;-83
2024/04/07 04:32:42;;;;;;;19.77;3.40;;;11.90;83.30;;;;;;6203601;28;20057;-82
2024/04/07 04:35:42;;;;;;;20.40;3.25;;;12.00;87.30;;;;;;6202806;28;20053;-80
2024/04/07 04:38:43;;;;;;;19.13;3.35;;;11.90;88.00;;;;;;6187462;28;20076;-80
2024/04/07 04:41:45;;;;;;;25.35;3.80;;;11.90;89.00;;;;;;6202945;28;20061;-80
2024/04/07 04:44:46;;;;;;;25.33;4.10;;;11.90;90.30;;;;;;6181090;28;20054;-80
2024/04/07 04:47:47;;;;;;;20.77;3.65;;;11.90;88.90;;;;;;6202319;28;20080;-80
2024/04/07 04:50:48;;;;;;;27.65;3.80;;;11.80;89.30;;;;;;6187017;28;20664;-80
2024/04/07 04:53:48;;;;;;;27.75;3.72;;;11.80;88.90;;;;;;6202787;28;20290;-80
2024/04/07 04:56:49;;;;;;;20.40;2.97;;;11.80;84.20;;;;;;6202454;28;20058;-81
2024/04/07 04:59:50;;;;;;;20.75;4.22;;;11.70;82.90;;;;;;6175807;28;20061;-81
2024/04/07 05:02:51;;;;;;;29.67;3.17;;;11.80;85.40;;;;;;6202835;28;20133;-82
2024/04/07 05:05:52;;;;;;;26.48;3.50;;;11.70;84.10;;;;;;6198432;28;20553;-81
2024/04/07 05:08:52;;;;;;;23.75;3.65;;;11.70;86.40;;;;;;6202741;28;20100;-81
2024/04/07 05:11:53;;;;;;;28.35;3.92;;;11.60;87.30;;;;;;6202833;28;20081;-81
2024/04/07 05:14:54;;;;;;;27.40;4.05;;;11.70;88.80;;;;;;6196549;28;20058;-82
2024/04/07 05:17:55;;;;;;;22.10;3.65;;;11.50;87.50;;;;;;6186183;28;20073;-81
2024/04/07 05:20:55;;;;;;;25.70;4.38;;;11.50;85.90;;;;;;6186440;28;20501;-81
2024/04/07 05:23:56;;;;;;;22.60;3.45;;;11.50;84.40;;;;;;6179795;28;20402;-82
2024/04/07 05:26:57;;;;;;;28.90;4.07;;;11.50;84.30;;;;;;6186479;28;20049;-82
2024/04/07 05:29:57;;;;;;;23.45;3.55;;;11.50;87.20;;;;;;6167314;28;20057;-82
2024/04/07 05:32:58;;;;;;;26.58;3.85;;;11.50;87.60;;;;;;6183320;28;20054;-82
2024/04/07 05:35:58;;;;;;;27.40;4.22;;;11.60;90.40;;;;;;6202043;28;20524;-82
2024/04/07 05:38:59;;;;;;;24.25;3.40;;;11.50;91.00;;;;;;6186058;28;20061;-81
2024/04/07 05:42:00;;;;;;;23.73;3.63;;;11.50;91.40;;;;;;6200890;28;20060;-81
2024/04/07 05:45:00;;;;;;;31.33;3.90;;;11.60;91.50;;;;;;6177005;28;20565;-81
2024/04/07 05:48:01;;;;;;;27.25;3.83;;;11.60;91.30;;;;;;6200725;28;20058;-80
2024/04/07 05:51:03;;;;;;;26.40;4.03;;;11.60;91.50;;;;;;6196353;28;20053;-81
2024/04/07 05:54:03;;;;;;;26.52;3.88;;;11.70;91.00;;;;;;6201705;28;20460;-81
2024/04/07 05:57:04;;;;;;;29.40;3.90;;;11.70;91.20;;;;;;6185686;28;20089;-81
2024/04/07 06:00:08;;;;;;;24.92;3.72;;;11.80;90.60;;;;;;6196679;28;20131;-80
2024/04/07 06:03:09;;;;;;;19.17;3.50;;;11.80;90.90;;;;;;6189487;28;20054;-82
2024/04/07 06:06:10;;;;;;;19.60;4.35;;;11.90;91.00;;;;;;6185925;28;20057;-81
2024/04/07 06:09:11;;;;;;;23.13;3.65;;;11.90;90.60;;;;;;6185479;28;20093;-81
2024/04/07 06:12:11;;;;;;;19.70;3.25;;;12.00;90.20;;;;;;6185054;28;20058;-81
2024/04/07 06:15:12;;;;;;;23.45;4.13;;;12.00;89.70;;;;;;6181550;28;20054;-81
2024/04/07 06:18:13;;;;;;;25.00;4.00;;;12.10;88.30;;;;;;6185491;28;20128;-82
2024/04/07 06:21:13;;;;;;;20.38;3.17;;;12.10;88.10;;;;;;6185809;28;20053;-82
2024/04/07 06:24:14;;;;;;;22.70;3.58;;;12.20;85.90;;;;;;6201618;28;20506;-81
2024/04/07 06:27:15;;;;;;;26.60;3.58;;;12.30;85.20;;;;;;6201075;28;20089;-81
2024/04/07 06:30:16;;;;;;;24.75;3.40;;;12.40;81.60;;;;;;6195744;28;20137;-81
2024/04/07 06:33:16;;;;;;;24.45;3.65;;;12.40;82.40;;;;;;6191083;28;20076;-81
2024/04/07 06:36:17;;;;;;;22.30;3.33;;;12.50;81.30;;;;;;6185902;28;20054;-82
2024/04/07 06:39:18;;;;;;;19.40;3.78;;;12.50;81.70;;;;;;6205947;28;20509;-83
2024/04/07 06:42:19;;;;;;;22.23;3.67;;;12.70;80.30;;;;;;6205697;28;20062;-84
2024/04/07 06:45:20;;;;;;;21.48;3.72;;;12.70;75.60;;;;;;6166488;28;20066;-82
2024/04/07 06:48:21;;;;;;;22.88;3.72;;;12.80;74.20;;;;;;6189163;28;20057;-85
2024/04/07 06:51:22;;;;;;;23.75;3.53;;;12.90;74.00;;;;;;6205611;28;20485;-82
2024/04/07 06:54:23;;;;;;;25.50;3.60;;;13.10;67.60;;;;;;6205518;28;20054;-83
2024/04/07 06:57:24;;;;;;;16.77;3.38;;;13.50;52.40;;;;;;6188962;28;20140;-84
2024/04/07 07:00:25;;;;;;;11.48;2.42;;;14.40;42.00;;;;;;6179229;28;20540;-85
2024/04/07 07:03:26;;;;;;;13.93;2.33;;;15.20;3.20;;;;;;6205510;28;20062;-81
2024/04/07 07:06:27;;;;;;;14.18;2.15;;;15.60;1.00;;;;;;6178789;28;20051;-84
2024/04/07 07:09:27;;;;;;;8.85;2.00;;;15.80;1.00;;;;;;6188297;28;20112;-83
2024/04/07 07:12:28;;;;;;;12.93;2.60;;;15.80;1.00;;;;;;6206065;28;20489;-83
2024/04/07 07:15:29;;;;;;;9.30;2.13;;;16.00;1.00;;;;;;6184338;28;20062;-83
2024/04/07 07:18:30;;;;;;;14.70;2.47;;;15.90;1.00;;;;;;6190008;28;20061;-84
2024/04/07 07:21:30;;;;;;;9.65;2.03;;;16.00;1.00;;;;;;6189428;28;20064;-83
2024/04/07 07:24:31;;;;;;;13.15;2.10;;;16.30;1.00;;;;;;6205601;28;20144;-82
2024/04/07 07:27:32;;;;;;;12.63;2.72;;;16.70;1.00;;;;;;6205680;28;20053;-82
2024/04/07 07:30:34;;;;;;;15.07;3.17;;;16.90;1.00;;;;;;6194079;28;20108;-83
2024/04/07 07:33:36;;;;;;;11.68;2.60;;;17.00;1.00;;;;;;6186828;28;20068;-81
2024/04/07 07:36:36;;;;;;;12.52;2.05;;;17.20;1.00;;;;;;6191301;28;20493;-80
2024/04/07 07:39:37;;;;;;;11.32;2.50;;;17.40;1.00;;;;;;6187651;28;20101;-80
2024/04/07 07:42:38;;;;;;;18.58;2.58;;;17.70;1.00;;;;;;6186506;28;20076;-79
2024/04/07 07:45:40;;;;;;;15.43;2.55;;;17.60;1.00;;;;;;6178173;28;20080;-81
2024/04/07 07:48:40;;;;;;;14.77;3.78;;;17.90;1.00;;;;;;6204342;28;20045;-79
2024/04/07 07:51:41;;;;;;;10.27;2.22;;;18.10;1.00;;;;;;6189768;28;20064;-80
2024/04/07 07:54:42;;;;;;;14.93;2.70;;;18.10;1.00;;;;;;6204704;28;20054;-81
2024/04/07 07:57:42;;;;;;;10.80;2.45;;;18.00;1.00;;;;;;6198337;28;20058;-81
2024/04/07 08:00:44;;;;;;;14.70;2.53;;;17.80;1.00;;;;;;6181743;28;20054;-80
2024/04/07 08:03:44;;;;;;;12.43;2.50;;;18.10;1.00;;;;;;6191759;28;20055;-80
2024/04/07 08:06:45;;;;;;;9.60;2.40;;;18.60;1.00;;;;;;6203149;28;20095;-80
2024/04/07 08:09:46;;;;;;;9.77;2.67;;;18.90;1.00;;;;;;6192746;28;20050;-80
2024/04/07 08:12:48;;;;;;;10.82;2.65;;;19.00;1.00;;;;;;6183272;28;20053;-81
2024/04/07 08:15:49;;;;;;;13.50;2.65;;;18.90;1.00;;;;;;6149456;28;20065;-80
2024/04/07 08:18:50;;;;;;;12.57;2.35;;;19.10;1.00;;;;;;6202979;28;20054;-81
2024/04/07 08:21:50;;;;;;;14.32;2.70;;;19.40;1.00;;;;;;6187072;28;20049;-80
2024/04/07 08:24:51;;;;;;;15.48;2.95;;;19.10;1.00;;;;;;6197314;28;20225;-80
2024/04/07 08:27:52;;;;;;;12.80;2.53;;;18.90;1.00;;;;;;6200858;28;20058;-80
2024/04/07 08:30:53;;;;;;;13.85;2.58;;;18.40;1.00;;;;;;6190547;28;20425;-80
2024/04/07 08:33:54;;;;;;;21.52;2.55;;;18.90;1.00;;;;;;6194398;28;20054;-80
2024/04/07 08:36:54;;;;;;;15.55;2.70;;;18.50;1.00;;;;;;6191097;28;20184;-81
2024/04/07 08:39:55;;;;;;;12.65;2.72;;;18.30;1.00;;;;;;6203303;28;20533;-82
2024/04/07 08:42:56;;;;;;;13.95;2.70;;;18.10;1.00;;;;;;6185891;28;20061;-79
2024/04/07 08:45:57;;;;;;;16.67;2.97;;;18.60;1.00;;;;;;6186943;28;20068;-78
2024/04/07 08:48:58;;;;;;;13.63;2.70;;;18.90;1.00;;;;;;6181917;28;20058;-80
2024/04/07 08:51:59;;;;;;;11.70;2.47;;;18.90;1.00;;;;;;6184668;28;20413;-80
2024/04/07 08:54:59;;;;;;;10.35;2.40;;;18.70;1.00;;;;;;6184440;28;20062;-79
2024/04/07 08:58:00;;;;;;;14.80;2.85;;;18.40;1.00;;;;;;6185583;28;20505;-80
2024/04/07 09:01:01;;;;;;;12.98;3.33;;;18.80;1.00;;;;;;6196826;28;20084;-79
2024/04/07 09:04:02;;;;;;;13.93;2.42;;;19.30;1.00;;;;;;6187429;28;20058;-78
2024/04/07 09:07:03;;;;;;;14.00;2.70;;;19.20;1.00;;;;;;6187604;28;20046;-82
2024/04/07 09:10:04;;;;;;;15.68;2.95;;;18.70;1.00;;;;;;6192770;28;20065;-83
2024/04/07 09:13:05;;;;;;;12.05;2.50;;;18.50;1.00;;;;;;6201905;28;20054;-83
2024/04/07 09:16:06;;;;;;;21.73;2.28;;;18.00;1.00;;;;;;6196743;28;20050;-81
2024/04/07 09:19:06;;;;;;;14.73;3.17;;;17.10;1.00;;;;;;6177902;28;20064;-82
2024/04/07 09:22:07;;;;;;;15.05;3.13;;;17.10;1.00;;;;;;6225983;28;20052;-82
2024/04/07 09:25:09;;;;;;;13.88;2.70;;;17.10;1.00;;;;;;6195230;28;20088;-83
2024/04/07 09:28:09;;;;;;;18.55;3.13;;;17.60;1.00;;;;;;6199469;28;20123;-80
2024/04/07 09:31:10;;;;;;;14.52;2.20;;;18.60;1.00;;;;;;6183731;28;20062;-85
2024/04/07 09:34:10;;;;;;;14.00;2.67;;;18.50;1.00;;;;;;6200736;28;20054;-82
2024/04/07 09:37:11;;;;;;;13.68;2.63;;;17.80;1.00;;;;;;6191241;28;20208;-80
2024/04/07 09:40:12;;;;;;;14.75;3.03;;;17.90;1.00;;;;;;6192566;28;20049;-79
2024/04/07 09:43:12;;;;;;;13.18;3.53;;;17.60;1.00;;;;;;6201716;28;20050;-82
2024/04/07 09:46:14;;;;;;;15.32;2.67;;;17.50;1.00;;;;;;6197932;28;20084;-82
2024/04/07 09:49:15;;;;;;;20.40;2.92;;;18.30;1.00;;;;;;6162438;28;20058;-82
2024/04/07 09:52:15;;;;;;;13.50;2.70;;;17.70;1.00;;;;;;6201872;28;20054;-83
2024/04/07 09:55:16;;;;;;;14.88;2.85;;;17.70;1.00;;;;;;6201820;28;20156;-83
2024/04/07 09:58:18;;;;;;;14.50;2.85;;;18.90;1.00;;;;;;6183339;28;20170;-81
2024/04/07 10:01:21;;;;;;;14.90;2.88;;;18.40;1.00;;;;;;6197338;28;20064;-83
2024/04/07 10:04:24;;;;;;;17.98;3.42;;;17.90;1.00;;;;;;6161464;28;20143;-82
2024/04/07 10:07:25;;;;;;;15.43;2.88;;;18.10;1.00;;;;;;6201236;28;20053;-82
2024/04/07 10:10:25;;;;;;;12.27;2.30;;;18.70;1.00;;;;;;6201385;28;20118;-83
2024/04/07 10:13:27;;;;;;;9.00;2.20;;;18.20;1.00;;;;;;6177013;28;20082;-84
2024/04/07 10:16:27;;;;;;;11.85;2.47;;;18.20;1.00;;;;;;6207387;28;20054;-84
2024/04/07 10:19:28;;;;;;;13.95;2.20;;;18.70;1.00;;;;;;6167282;28;20509;-84
2024/04/07 10:22:30;;;;;;;17.23;2.92;;;19.10;1.00;;;;;;6207371;28;20144;-89
2024/04/07 10:25:31;;;;;;;15.07;2.78;;;19.40;1.00;;;;;;6206898;28;20057;-82
2024/04/07 10:28:32;;;;;;;14.52;2.28;;;19.90;1.00;;;;;;6206469;28;20058;-84
2024/04/07 10:31:32;;;;;;;14.98;2.40;;;19.80;1.00;;;;;;6190139;28;20054;-85
2024/04/07 10:34:33;;;;;;;8.48;1.80;;;19.70;1.00;;;;;;6181925;28;20066;-79
2024/04/07 10:37:34;;;;;;;14.20;2.33;;;19.60;1.00;;;;;;6193816;28;20058;-82
2024/04/07 10:40:34;;;;;;;13.20;2.20;;;18.90;1.00;;;;;;6174234;28;20062;-81
2024/04/07 10:43:35;;;;;;;16.15;3.15;;;18.60;1.00;;;;;;6192368;28;20058;-81
2024/04/07 10:46:35;;;;;;;14.73;2.70;;;18.40;1.00;;;;;;6198014;28;20524;-83
2024/04/07 10:49:36;;;;;;;13.93;3.42;;;18.40;1.00;;;;;;6198300;28;20072;-81
2024/04/07 10:52:37;;;;;;;17.58;3.30;;;18.30;1.00;;;;;;6197915;28;20062;-81
2024/04/07 10:55:38;;;;;;;17.85;2.95;;;18.70;1.00;;;;;;6180371;28;20058;-81
2024/04/07 10:58:39;;;;;;;10.52;2.45;;;18.70;1.00;;;;;;6163186;28;20947;-83
2024/04/07 11:01:40;;;;;;;13.90;2.80;;;19.50;1.00;;;;;;6181816;28;20072;-82
2024/04/07 11:04:40;;;;;;;14.93;2.95;;;18.60;1.00;;;;;;6179359;28;20146;-81
2024/04/07 11:07:41;;;;;;;21.85;3.72;;;18.40;1.00;;;;;;6181001;28;20058;-83
2024/04/07 11:10:41;;;;;;;14.07;2.80;;;18.30;1.00;;;;;;6196780;28;20054;-81
2024/04/07 11:13:42;;;;;;;13.25;2.90;;;18.80;1.00;;;;;;6180502;28;20061;-81
2024/04/07 11:16:43;;;;;;;8.57;1.83;;;19.00;1.00;;;;;;6162498;28;20069;-81
2024/04/07 11:19:44;;;;;;;18.05;2.78;;;19.00;1.00;;;;;;6180384;28;20054;-81
2024/04/07 11:22:44;;;;;;;10.77;1.98;;;19.80;1.00;;;;;;6179851;28;20425;-82
2024/04/07 11:25:45;;;;;;;16.83;2.30;;;20.00;1.00;;;;;;6180151;28;20062;-84
2024/04/07 11:28:46;;;;;;;12.65;2.45;;;19.10;1.00;;;;;;6178308;28;20519;-81
2024/04/07 11:31:46;;;;;;;11.10;2.65;;;18.30;1.00;;;;;;6179963;28;20069;-82
2024/04/07 11:34:47;;;;;;;12.02;2.25;;;18.90;1.00;;;;;;6195488;28;20357;-82
2024/04/07 11:37:47;;;;;;;11.73;2.33;;;18.90;1.00;;;;;;6196123;28;20065;-82
2024/04/07 11:40:48;;;;;;;12.70;2.13;;;19.70;1.00;;;;;;6196646;28;20224;-83
2024/04/07 11:43:49;;;;;;;10.00;1.88;;;20.10;1.00;;;;;;6162285;28;20417;-82
2024/04/07 11:46:50;;;;;;;11.88;2.70;;;20.20;1.00;;;;;;6196294;28;20068;-83
2024/04/07 11:49:50;;;;;;;18.45;3.50;;;20.30;1.00;;;;;;6178919;28;20058;-80
2024/04/07 11:52:51;;;;;;;13.52;2.75;;;20.90;1.00;;;;;;6179513;28;20313;-82
2024/04/07 11:55:52;;;;;;;14.18;3.13;;;21.40;1.00;;;;;;6195460;28;20090;-81
2024/04/07 11:58:52;;;;;;;20.25;2.88;;;20.50;1.00;;;;;;6177017;28;20050;-82
2024/04/07 12:01:53;;;;;;;14.60;2.50;;;19.70;1.00;;;;;;6195045;28;20480;-83
2024/04/07 12:04:54;;;;;;;16.98;2.60;;;19.70;1.00;;;;;;6175267;28;20054;-84
2024/04/07 12:07:54;;;;;;;21.65;2.63;;;19.60;1.00;;;;;;6169064;28;20050;-84
2024/04/07 12:10:55;;;;;;;16.20;2.72;;;19.40;1.00;;;;;;6190512;28;20050;-83
2024/04/07 12:13:55;;;;;;;11.60;2.78;;;19.10;1.00;;;;;;6177289;28;20533;-79
2024/04/07 12:16:56;;;;;;;12.43;2.65;;;19.90;1.00;;;;;;6195090;28;20058;-86
2024/04/07 12:19:57;;;;;;;12.88;2.72;;;20.40;1.00;;;;;;6178803;28;20054;-81
2024/04/07 12:22:58;;;;;;;13.07;2.45;;;21.50;1.00;;;;;;6195641;28;20057;-85
2024/04/07 12:25:58;;;;;;;11.30;2.17;;;21.30;1.00;;;;;;6158911;28;20074;-82
2024/04/07 12:28:59;;;;;;;8.90;1.85;;;20.40;1.00;;;;;;6175824;28;20374;-85
2024/04/07 12:32:00;;;;;;;12.80;2.45;;;20.40;1.00;;;;;;6184347;28;20113;-85
2024/04/07 12:35:00;;;;;;;12.80;2.55;;;19.50;1.00;;;;;;6177052;28;20140;-83
2024/04/07 12:38:01;;;;;;;12.63;3.00;;;19.50;1.00;;;;;;6160740;28;20059;-83
2024/04/07 12:41:02;;;;;;;19.10;3.10;;;20.40;1.00;;;;;;6174774;28;20405;-85
2024/04/07 12:44:03;;;;;;;13.23;2.67;;;20.10;1.00;;;;;;6156704;28;20292;-84
2024/04/07 12:47:03;;;;;;;13.70;3.42;;;20.20;1.00;;;;;;6189158;28;20497;-82
2024/04/07 12:50:05;;;;;;;12.52;3.00;;;19.30;1.00;;;;;;6194060;28;20065;-81
2024/04/07 12:53:05;;;;;;;19.13;3.00;;;18.90;1.00;;;;;;6186980;28;20395;-79
2024/04/07 12:56:06;;;;;;;15.52;3.05;;;19.10;1.00;;;;;;6192288;28;20046;-80
2024/04/07 12:59:06;;;;;;;14.40;3.05;;;18.80;1.00;;;;;;6177564;28;20113;-80
2024/04/07 13:02:07;;;;;;;9.85;2.50;;;18.40;1.00;;;;;;6183088;28;20451;-81
2024/04/07 13:05:08;;;;;;;14.73;2.88;;;18.20;1.00;;;;;;6193810;28;20100;-82
2024/04/07 13:08:08;;;;;;;14.50;2.97;;;18.90;1.00;;;;;;6193865;28;20062;-81
2024/04/07 13:11:09;;;;;;;15.32;2.70;;;19.50;1.00;;;;;;6179042;28;20142;-82
2024/04/07 13:14:10;;;;;;;15.38;2.60;;;18.90;1.00;;;;;;6168486;28;20141;-81
2024/04/07 13:17:11;;;;;;;13.23;2.88;;;18.50;1.00;;;;;;6188640;28;20773;-80
2024/04/07 13:20:11;;;;;;;15.05;2.85;;;18.50;1.00;;;;;;6194984;28;20141;-84
2024/04/07 13:23:12;;;;;;;15.63;2.65;;;18.90;1.00;;;;;;6194055;28;20605;-82
2024/04/07 13:26:13;;;;;;;15.60;2.47;;;19.30;1.00;;;;;;6178821;28;20054;-81
2024/04/07 13:29:14;;;;;;;23.58;2.55;;;19.60;1.00;;;;;;6182825;28;20129;-77
2024/04/07 13:32:14;;;;;;;20.23;2.50;;;20.20;1.00;;;;;;6177722;28;20221;-78
2024/04/07 13:35:15;;;;;;;10.63;1.90;;;20.70;1.00;;;;;;6193194;28;20077;-79
2024/04/07 13:38:16;;;;;;;10.48;1.85;;;21.00;1.00;;;;;;6193562;28;20158;-82
2024/04/07 13:41:16;;;;;;;16.15;2.22;;;21.80;1.00;;;;;;6191449;28;20061;-82
2024/04/07 13:44:17;;;;;;;9.90;1.88;;;21.20;1.00;;;;;;6158613;28;20058;-83
2024/04/07 13:47:18;;;;;;;10.07;2.20;;;20.90;1.00;;;;;;6193370;28;20061;-82
2024/04/07 13:50:19;;;;;;;11.13;2.53;;;19.90;1.00;;;;;;6194448;28;20054;-85
2024/04/07 13:53:20;;;;;;;10.65;2.15;;;19.90;1.00;;;;;;6193963;28;20066;-84
2024/04/07 13:56:20;;;;;;;10.13;2.10;;;20.00;1.00;;;;;;6177872;28;20050;-85
2024/04/07 13:59:21;;;;;;;11.02;1.92;;;20.20;1.00;;;;;;6159832;28;20128;-88
2024/04/07 14:02:22;;;;;;;15.98;1.90;;;20.10;1.00;;;;;;6178710;28;20069;-87
2024/04/07 14:05:23;;;;;;;9.38;2.05;;;19.60;1.00;;;;;;6172118;28;20578;-84
2024/04/07 14:08:23;;;;;;;13.18;2.55;;;20.20;1.00;;;;;;6196561;28;20055;-88
2024/04/07 14:11:24;;;;;;;11.27;1.98;;;20.30;1.00;;;;;;6181984;28;20062;-86
2024/04/07 14:14:25;;;;;;;16.27;2.40;;;20.30;1.00;;;;;;6184700;28;20486;-88
2024/04/07 14:17:25;;;;;;;10.10;2.35;;;20.10;1.00;;;;;;6197943;28;20137;-87
2024/04/07 14:20:26;;;;;;;14.55;2.20;;;20.20;1.00;;;;;;6198780;28;20050;-88
2024/04/07 14:23:27;;;;;;;14.65;2.97;;;20.20;1.00;;;;;;6180370;28;20058;-87
2024/04/07 14:27:57;;;;;;;15.95;2.38;;;20.20;1.00;;;;;;6365837;27;20443;-74
2024/04/07 14:30:58;;;;;;;9.10;1.88;;;19.60;1.00;;;;;;6291372;28;20499;-75
2024/04/07 14:33:58;;;;;;;8.75;2.08;;;20.90;1.00;;;;;;6271717;28;20111;-74
2024/04/07 14:36:59;;;;;;;11.52;2.03;;;20.10;1.00;;;;;;6296109;28;20126;-73
2024/04/07 14:40:00;;;;;;;9.77;1.85;;;19.50;1.00;;;;;;6296202;28;20512;-73
2024/04/07 14:43:01;;;;;;;12.65;2.38;;;19.50;1.00;;;;;;6296316;28;20060;-73
2024/04/07 14:46:03;;;;;;;10.45;2.42;;;19.60;1.00;;;;;;6268623;28;20079;-74
2024/04/07 14:49:04;;;;;;;15.18;3.00;;;19.00;1.00;;;;;;6255062;28;20057;-74
2024/04/07 14:52:08;;;;;;;12.02;2.85;;;19.20;1.00;;;;;;6270829;28;20469;-74
2024/04/07 14:55:08;;;;;;;9.90;2.25;;;18.70;1.00;;;;;;6295916;28;20063;-74
2024/04/07 14:58:11;;;;;;;14.57;2.65;;;18.80;1.00;;;;;;6295218;28;20515;-74
2024/04/07 15:01:13;;;;;;;12.05;3.15;;;18.30;1.00;;;;;;6285566;28;20356;-74
2024/04/07 15:04:14;;;;;;;13.18;2.50;;;17.70;1.00;;;;;;6254019;28;20053;-73
2024/04/07 15:07:14;;;;;;;13.57;2.42;;;17.60;1.00;;;;;;6294500;28;20083;-73
2024/04/07 15:10:15;;;;;;;12.23;2.97;;;17.40;1.00;;;;;;6295439;28;20463;-73
2024/04/07 15:13:16;;;;;;;14.98;2.58;;;18.20;1.00;;;;;;6295205;28;20064;-74
2024/04/07 15:16:18;;;;;;;16.90;2.63;;;18.50;1.00;;;;;;6290251;28;20052;-73
2024/04/07 15:19:19;;;;;;;10.43;2.55;;;18.50;1.00;;;;;;6253988;28;20160;-72
2024/04/07 15:22:21;;;;;;;12.35;2.50;;;17.90;1.00;;;;;;6294623;28;20110;-73
2024/04/07 15:25:22;;;;;;;12.60;2.30;;;17.70;1.00;;;;;;6289517;28;20470;-71
2024/04/07 15:28:22;;;;;;;10.55;2.42;;;18.00;1.00;;;;;;6265385;28;20139;-74
2024/04/07 15:31:23;;;;;;;12.13;2.42;;;18.10;1.00;;;;;;6270421;28;20507;-71
2024/04/07 15:34:24;;;;;;;19.67;3.00;;;17.90;1.00;;;;;;6229345;28;20068;-72
2024/04/07 15:37:24;;;;;;;15.40;2.63;;;17.60;1.00;;;;;;6263014;28;20057;-72
2024/04/07 15:40:25;;;;;;;16.13;2.90;;;17.60;1.00;;;;;;6229130;28;20146;-72